sensor_id;sensor_type;location;lat;lon;timestamp;P1;durP1;ratioP1;P2;durP2;ratioP2
41305;SDS011;27051;50.376;19.152;2023-06-01T00:02:19;20.30;;;8.00;;
41305;SDS011;27051;50.376;19.152;2023-06-01T00:04:46;16.60;;;7.70;;
41305;SDS011;27051;50.376;19.152;2023-06-01T00:07:12;16.00;;;7.80;;
41305;SDS011;27051;50.376;19.152;2023-06-01T00:09:39;18.40;;;8.20;;
41305;SDS011;27051;50.376;19.152;2023-06-01T00:12:06;18.60;;;7.90;;
41305;SDS011;27051;50.376;19.152;2023-06-01T00:14:33;18.80;;;7.60;;
41305;SDS011;27051;50.376;19.152;2023-06-01T00:17:00;17.80;;;7.50;;
41305;SDS011;27051;50.376;19.152;2023-06-01T00:19:27;18.50;;;7.90;;
41305;SDS011;27051;50.376;19.152;2023-06-01T00:21:54;16.40;;;7.60;;
41305;SDS011;27051;50.376;19.152;2023-06-01T00:24:21;16.30;;;7.60;;
41305;SDS011;27051;50.376;19.152;2023-06-01T00:26:48;16.10;;;7.70;;
41305;SDS011;27051;50.376;19.152;2023-06-01T00:29:15;18.40;;;7.30;;
41305;SDS011;27051;50.376;19.152;2023-06-01T00:31:42;19.40;;;7.70;;
41305;SDS011;27051;50.376;19.152;2023-06-01T00:34:09;16.70;;;7.50;;
41305;SDS011;27051;50.376;19.152;2023-06-01T00:36:35;14.90;;;7.20;;
41305;SDS011;27051;50.376;19.152;2023-06-01T00:39:02;16.50;;;7.20;;
41305;SDS011;27051;50.376;19.152;2023-06-01T00:41:29;15.90;;;7.60;;
41305;SDS011;27051;50.376;19.152;2023-06-01T00:43:57;13.10;;;7.40;;
41305;SDS011;27051;50.376;19.152;2023-06-01T00:46:23;17.90;;;8.10;;
41305;SDS011;27051;50.376;19.152;2023-06-01T00:48:51;14.40;;;7.50;;
41305;SDS011;27051;50.376;19.152;2023-06-01T00:51:17;16.20;;;7.30;;
41305;SDS011;27051;50.376;19.152;2023-06-01T00:53:45;19.90;;;7.70;;
41305;SDS011;27051;50.376;19.152;2023-06-01T00:56:12;21.30;;;8.30;;
41305;SDS011;27051;50.376;19.152;2023-06-01T00:58:39;20.40;;;7.70;;
41305;SDS011;27051;50.376;19.152;2023-06-01T01:01:06;16.70;;;7.40;;
41305;SDS011;27051;50.376;19.152;2023-06-01T01:03:34;18.90;;;7.50;;
41305;SDS011;27051;50.376;19.152;2023-06-01T01:09:05;21.80;;;8.70;;
41305;SDS011;27051;50.376;19.152;2023-06-01T01:11:33;20.50;;;8.20;;
41305;SDS011;27051;50.376;19.152;2023-06-01T01:20:03;20.20;;;7.70;;
41305;SDS011;27051;50.376;19.152;2023-06-01T01:22:39;19.60;;;8.50;;
41305;SDS011;27051;50.376;19.152;2023-06-01T01:30:22;24.60;;;9.10;;
41305;SDS011;27051;50.376;19.152;2023-06-01T01:32:56;22.20;;;9.40;;
41305;SDS011;27051;50.376;19.152;2023-06-01T01:35:26;23.90;;;9.10;;
41305;SDS011;27051;50.376;19.152;2023-06-01T01:37:54;26.20;;;9.40;;
41305;SDS011;27051;50.376;19.152;2023-06-01T01:40:21;26.70;;;10.20;;
41305;SDS011;27051;50.376;19.152;2023-06-01T01:42:48;26.20;;;9.70;;
41305;SDS011;27051;50.376;19.152;2023-06-01T01:45:17;22.30;;;9.70;;
41305;SDS011;27051;50.376;19.152;2023-06-01T01:50:49;24.40;;;9.30;;
41305;SDS011;27051;50.376;19.152;2023-06-01T01:53:19;23.70;;;10.10;;
41305;SDS011;27051;50.376;19.152;2023-06-01T01:55:49;24.10;;;9.90;;
41305;SDS011;27051;50.376;19.152;2023-06-01T01:58:17;21.50;;;9.00;;
41305;SDS011;27051;50.376;19.152;2023-06-01T02:00:44;24.50;;;8.80;;
41305;SDS011;27051;50.376;19.152;2023-06-01T02:03:15;23.60;;;9.00;;
41305;SDS011;27051;50.376;19.152;2023-06-01T02:05:43;26.10;;;9.20;;
41305;SDS011;27051;50.376;19.152;2023-06-01T02:08:10;28.40;;;9.10;;
41305;SDS011;27051;50.376;19.152;2023-06-01T02:10:36;21.60;;;8.30;;
41305;SDS011;27051;50.376;19.152;2023-06-01T02:13:03;24.10;;;9.00;;
41305;SDS011;27051;50.376;19.152;2023-06-01T02:15:30;23.60;;;9.30;;
41305;SDS011;27051;50.376;19.152;2023-06-01T02:17:56;20.60;;;8.80;;
41305;SDS011;27051;50.376;19.152;2023-06-01T02:20:23;22.40;;;11.20;;
41305;SDS011;27051;50.376;19.152;2023-06-01T02:22:49;22.40;;;8.80;;
41305;SDS011;27051;50.376;19.152;2023-06-01T02:25:16;22.00;;;8.20;;
41305;SDS011;27051;50.376;19.152;2023-06-01T02:27:43;20.20;;;7.70;;
41305;SDS011;27051;50.376;19.152;2023-06-01T02:30:09;20.90;;;8.50;;
41305;SDS011;27051;50.376;19.152;2023-06-01T02:32:36;20.80;;;8.40;;
41305;SDS011;27051;50.376;19.152;2023-06-01T02:35:03;20.70;;;9.60;;
41305;SDS011;27051;50.376;19.152;2023-06-01T02:37:30;21.70;;;9.20;;
41305;SDS011;27051;50.376;19.152;2023-06-01T02:39:57;19.30;;;8.50;;
41305;SDS011;27051;50.376;19.152;2023-06-01T02:42:24;17.70;;;7.80;;
41305;SDS011;27051;50.376;19.152;2023-06-01T02:44:50;25.00;;;9.30;;
41305;SDS011;27051;50.376;19.152;2023-06-01T02:47:17;22.10;;;8.50;;
41305;SDS011;27051;50.376;19.152;2023-06-01T02:49:43;21.40;;;8.90;;
41305;SDS011;27051;50.376;19.152;2023-06-01T02:52:10;21.30;;;8.20;;
41305;SDS011;27051;50.376;19.152;2023-06-01T02:54:37;21.20;;;8.20;;
41305;SDS011;27051;50.376;19.152;2023-06-01T02:57:03;22.10;;;8.00;;
41305;SDS011;27051;50.376;19.152;2023-06-01T02:59:30;19.70;;;8.40;;
41305;SDS011;27051;50.376;19.152;2023-06-01T03:01:57;23.90;;;8.30;;
41305;SDS011;27051;50.376;19.152;2023-06-01T03:04:23;18.50;;;8.90;;
41305;SDS011;27051;50.376;19.152;2023-06-01T03:06:50;25.10;;;9.10;;
41305;SDS011;27051;50.376;19.152;2023-06-01T03:09:16;18.90;;;8.10;;
41305;SDS011;27051;50.376;19.152;2023-06-01T03:11:43;18.20;;;8.20;;
41305;SDS011;27051;50.376;19.152;2023-06-01T03:14:09;20.50;;;8.40;;
41305;SDS011;27051;50.376;19.152;2023-06-01T03:16:36;16.00;;;7.60;;
41305;SDS011;27051;50.376;19.152;2023-06-01T03:19:02;23.50;;;9.00;;
41305;SDS011;27051;50.376;19.152;2023-06-01T03:21:29;19.80;;;8.60;;
41305;SDS011;27051;50.376;19.152;2023-06-01T03:23:56;21.60;;;8.50;;
41305;SDS011;27051;50.376;19.152;2023-06-01T03:26:22;22.70;;;9.40;;
41305;SDS011;27051;50.376;19.152;2023-06-01T03:28:49;22.20;;;9.00;;
41305;SDS011;27051;50.376;19.152;2023-06-01T03:31:16;24.20;;;8.90;;
41305;SDS011;27051;50.376;19.152;2023-06-01T03:33:42;21.80;;;9.00;;
41305;SDS011;27051;50.376;19.152;2023-06-01T03:36:09;24.80;;;9.30;;
41305;SDS011;27051;50.376;19.152;2023-06-01T03:38:35;22.60;;;10.30;;
41305;SDS011;27051;50.376;19.152;2023-06-01T03:41:02;23.10;;;9.90;;
41305;SDS011;27051;50.376;19.152;2023-06-01T03:43:29;23.50;;;9.50;;
41305;SDS011;27051;50.376;19.152;2023-06-01T03:45:55;16.50;;;8.30;;
41305;SDS011;27051;50.376;19.152;2023-06-01T03:48:22;24.70;;;10.20;;
41305;SDS011;27051;50.376;19.152;2023-06-01T03:50:49;23.20;;;9.30;;
41305;SDS011;27051;50.376;19.152;2023-06-01T03:53:15;17.10;;;8.30;;
41305;SDS011;27051;50.376;19.152;2023-06-01T03:55:42;19.70;;;8.60;;
41305;SDS011;27051;50.376;19.152;2023-06-01T03:58:08;19.10;;;9.40;;
41305;SDS011;27051;50.376;19.152;2023-06-01T04:00:35;17.40;;;8.00;;
41305;SDS011;27051;50.376;19.152;2023-06-01T04:03:01;20.10;;;8.70;;
41305;SDS011;27051;50.376;19.152;2023-06-01T04:05:29;16.60;;;7.80;;
41305;SDS011;27051;50.376;19.152;2023-06-01T04:07:56;19.50;;;8.60;;
41305;SDS011;27051;50.376;19.152;2023-06-01T04:10:22;18.40;;;8.70;;
41305;SDS011;27051;50.376;19.152;2023-06-01T04:12:49;16.50;;;7.70;;
41305;SDS011;27051;50.376;19.152;2023-06-01T04:15:18;16.80;;;8.10;;
41305;SDS011;27051;50.376;19.152;2023-06-01T04:17:45;18.50;;;9.10;;
41305;SDS011;27051;50.376;19.152;2023-06-01T04:20:13;21.40;;;9.10;;
41305;SDS011;27051;50.376;19.152;2023-06-01T04:22:41;19.80;;;8.20;;
41305;SDS011;27051;50.376;19.152;2023-06-01T04:25:09;20.80;;;9.10;;
41305;SDS011;27051;50.376;19.152;2023-06-01T04:27:41;19.00;;;9.30;;
41305;SDS011;27051;50.376;19.152;2023-06-01T04:30:09;19.40;;;9.40;;
41305;SDS011;27051;50.376;19.152;2023-06-01T04:32:36;18.40;;;9.20;;
41305;SDS011;27051;50.376;19.152;2023-06-01T04:35:03;21.90;;;9.90;;
41305;SDS011;27051;50.376;19.152;2023-06-01T04:37:34;22.00;;;9.30;;
41305;SDS011;27051;50.376;19.152;2023-06-01T04:40:04;20.00;;;9.20;;
41305;SDS011;27051;50.376;19.152;2023-06-01T04:42:31;24.30;;;9.80;;
41305;SDS011;27051;50.376;19.152;2023-06-01T04:44:58;24.40;;;11.60;;
41305;SDS011;27051;50.376;19.152;2023-06-01T04:47:24;23.80;;;11.30;;
41305;SDS011;27051;50.376;19.152;2023-06-01T04:49:51;24.80;;;10.30;;
41305;SDS011;27051;50.376;19.152;2023-06-01T04:52:18;23.20;;;10.80;;
41305;SDS011;27051;50.376;19.152;2023-06-01T04:54:44;23.90;;;10.70;;
41305;SDS011;27051;50.376;19.152;2023-06-01T04:57:11;61.50;;;14.70;;
41305;SDS011;27051;50.376;19.152;2023-06-01T04:59:39;27.60;;;12.10;;
41305;SDS011;27051;50.376;19.152;2023-06-01T05:02:06;25.50;;;11.30;;
41305;SDS011;27051;50.376;19.152;2023-06-01T05:04:33;34.20;;;12.40;;
41305;SDS011;27051;50.376;19.152;2023-06-01T05:07:00;25.70;;;11.10;;
41305;SDS011;27051;50.376;19.152;2023-06-01T05:09:27;28.00;;;11.00;;
41305;SDS011;27051;50.376;19.152;2023-06-01T05:11:53;24.70;;;11.40;;
41305;SDS011;27051;50.376;19.152;2023-06-01T05:14:20;35.00;;;13.20;;
41305;SDS011;27051;50.376;19.152;2023-06-01T05:16:46;27.30;;;12.30;;
41305;SDS011;27051;50.376;19.152;2023-06-01T05:19:14;29.80;;;11.60;;
41305;SDS011;27051;50.376;19.152;2023-06-01T05:21:44;25.70;;;11.40;;
41305;SDS011;27051;50.376;19.152;2023-06-01T05:24:10;28.60;;;12.50;;
41305;SDS011;27051;50.376;19.152;2023-06-01T05:26:37;22.60;;;10.80;;
41305;SDS011;27051;50.376;19.152;2023-06-01T05:29:04;24.90;;;12.10;;
41305;SDS011;27051;50.376;19.152;2023-06-01T05:31:30;24.90;;;11.70;;
41305;SDS011;27051;50.376;19.152;2023-06-01T05:33:57;27.60;;;12.60;;
41305;SDS011;27051;50.376;19.152;2023-06-01T05:36:24;28.70;;;12.40;;
41305;SDS011;27051;50.376;19.152;2023-06-01T05:38:50;27.60;;;12.40;;
41305;SDS011;27051;50.376;19.152;2023-06-01T05:41:17;37.70;;;13.60;;
41305;SDS011;27051;50.376;19.152;2023-06-01T05:43:44;29.40;;;12.90;;
41305;SDS011;27051;50.376;19.152;2023-06-01T05:46:10;26.80;;;12.20;;
41305;SDS011;27051;50.376;19.152;2023-06-01T05:48:37;28.20;;;12.40;;
41305;SDS011;27051;50.376;19.152;2023-06-01T05:51:04;27.10;;;12.00;;
41305;SDS011;27051;50.376;19.152;2023-06-01T05:53:30;29.10;;;12.60;;
41305;SDS011;27051;50.376;19.152;2023-06-01T05:55:57;33.30;;;13.00;;
41305;SDS011;27051;50.376;19.152;2023-06-01T05:58:24;25.00;;;13.50;;
41305;SDS011;27051;50.376;19.152;2023-06-01T06:00:50;25.40;;;12.30;;
41305;SDS011;27051;50.376;19.152;2023-06-01T06:03:17;23.20;;;11.30;;
41305;SDS011;27051;50.376;19.152;2023-06-01T06:05:43;28.50;;;12.60;;
41305;SDS011;27051;50.376;19.152;2023-06-01T06:08:10;27.60;;;12.20;;
41305;SDS011;27051;50.376;19.152;2023-06-01T06:10:37;34.10;;;13.00;;
41305;SDS011;27051;50.376;19.152;2023-06-01T06:13:03;28.70;;;12.50;;
41305;SDS011;27051;50.376;19.152;2023-06-01T06:15:30;30.70;;;12.60;;
41305;SDS011;27051;50.376;19.152;2023-06-01T06:17:56;23.60;;;12.10;;
41305;SDS011;27051;50.376;19.152;2023-06-01T06:20:23;28.40;;;13.60;;
41305;SDS011;27051;50.376;19.152;2023-06-01T06:22:50;29.90;;;12.10;;
41305;SDS011;27051;50.376;19.152;2023-06-01T06:25:18;24.30;;;12.40;;
41305;SDS011;27051;50.376;19.152;2023-06-01T06:27:46;31.50;;;13.80;;
41305;SDS011;27051;50.376;19.152;2023-06-01T06:30:13;24.60;;;11.70;;
41305;SDS011;27051;50.376;19.152;2023-06-01T06:32:40;27.00;;;13.10;;
41305;SDS011;27051;50.376;19.152;2023-06-01T06:35:06;27.90;;;11.50;;
41305;SDS011;27051;50.376;19.152;2023-06-01T06:37:33;28.10;;;11.10;;
41305;SDS011;27051;50.376;19.152;2023-06-01T06:40:00;26.70;;;11.70;;
41305;SDS011;27051;50.376;19.152;2023-06-01T06:42:26;24.70;;;10.90;;
41305;SDS011;27051;50.376;19.152;2023-06-01T06:44:53;24.30;;;10.70;;
41305;SDS011;27051;50.376;19.152;2023-06-01T06:47:20;27.50;;;11.80;;
41305;SDS011;27051;50.376;19.152;2023-06-01T06:49:46;26.30;;;11.80;;
41305;SDS011;27051;50.376;19.152;2023-06-01T06:52:13;23.00;;;10.30;;
41305;SDS011;27051;50.376;19.152;2023-06-01T06:54:40;24.80;;;12.30;;
41305;SDS011;27051;50.376;19.152;2023-06-01T06:57:07;25.60;;;11.40;;
41305;SDS011;27051;50.376;19.152;2023-06-01T06:59:34;24.40;;;10.50;;
41305;SDS011;27051;50.376;19.152;2023-06-01T07:02:01;24.60;;;10.50;;
41305;SDS011;27051;50.376;19.152;2023-06-01T07:04:27;24.00;;;11.00;;
41305;SDS011;27051;50.376;19.152;2023-06-01T07:06:54;21.60;;;9.70;;
41305;SDS011;27051;50.376;19.152;2023-06-01T07:09:21;21.70;;;8.60;;
41305;SDS011;27051;50.376;19.152;2023-06-01T07:11:48;16.10;;;7.20;;
41305;SDS011;27051;50.376;19.152;2023-06-01T07:14:14;13.90;;;6.70;;
41305;SDS011;27051;50.376;19.152;2023-06-01T07:16:41;14.60;;;6.60;;
41305;SDS011;27051;50.376;19.152;2023-06-01T07:19:08;14.90;;;6.30;;
41305;SDS011;27051;50.376;19.152;2023-06-01T07:21:34;11.90;;;5.20;;
41305;SDS011;27051;50.376;19.152;2023-06-01T07:24:01;13.70;;;5.90;;
41305;SDS011;27051;50.376;19.152;2023-06-01T07:26:28;14.50;;;5.80;;
41305;SDS011;27051;50.376;19.152;2023-06-01T07:28:54;14.70;;;5.60;;
41305;SDS011;27051;50.376;19.152;2023-06-01T07:31:22;16.60;;;5.60;;
41305;SDS011;27051;50.376;19.152;2023-06-01T07:33:49;13.00;;;5.50;;
41305;SDS011;27051;50.376;19.152;2023-06-01T07:36:17;25.30;;;5.60;;
41305;SDS011;27051;50.376;19.152;2023-06-01T07:38:44;17.70;;;6.00;;
41305;SDS011;27051;50.376;19.152;2023-06-01T07:41:11;10.90;;;4.70;;
41305;SDS011;27051;50.376;19.152;2023-06-01T07:43:38;12.40;;;4.90;;
41305;SDS011;27051;50.376;19.152;2023-06-01T07:46:04;7.70;;;4.70;;
41305;SDS011;27051;50.376;19.152;2023-06-01T07:48:31;12.70;;;5.00;;
41305;SDS011;27051;50.376;19.152;2023-06-01T07:50:58;14.30;;;5.40;;
41305;SDS011;27051;50.376;19.152;2023-06-01T07:53:25;13.40;;;5.60;;
41305;SDS011;27051;50.376;19.152;2023-06-01T07:55:51;11.10;;;5.60;;
41305;SDS011;27051;50.376;19.152;2023-06-01T07:58:18;13.70;;;5.40;;
41305;SDS011;27051;50.376;19.152;2023-06-01T08:00:45;15.10;;;5.60;;
41305;SDS011;27051;50.376;19.152;2023-06-01T08:03:11;12.80;;;6.30;;
41305;SDS011;27051;50.376;19.152;2023-06-01T08:05:39;18.00;;;5.70;;
41305;SDS011;27051;50.376;19.152;2023-06-01T08:08:07;12.60;;;6.00;;
41305;SDS011;27051;50.376;19.152;2023-06-01T08:10:33;11.70;;;5.70;;
41305;SDS011;27051;50.376;19.152;2023-06-01T08:13:00;15.20;;;6.00;;
41305;SDS011;27051;50.376;19.152;2023-06-01T08:15:26;11.90;;;5.30;;
41305;SDS011;27051;50.376;19.152;2023-06-01T08:17:54;14.30;;;5.30;;
41305;SDS011;27051;50.376;19.152;2023-06-01T08:20:21;15.10;;;5.20;;
41305;SDS011;27051;50.376;19.152;2023-06-01T08:22:48;13.00;;;4.60;;
41305;SDS011;27051;50.376;19.152;2023-06-01T08:25:15;8.70;;;4.50;;
41305;SDS011;27051;50.376;19.152;2023-06-01T08:27:42;7.90;;;3.80;;
41305;SDS011;27051;50.376;19.152;2023-06-01T08:30:08;8.90;;;3.90;;
41305;SDS011;27051;50.376;19.152;2023-06-01T08:32:36;9.60;;;3.90;;
41305;SDS011;27051;50.376;19.152;2023-06-01T08:35:03;11.30;;;4.40;;
41305;SDS011;27051;50.376;19.152;2023-06-01T08:37:32;12.70;;;4.50;;
41305;SDS011;27051;50.376;19.152;2023-06-01T08:39:58;7.80;;;3.90;;
41305;SDS011;27051;50.376;19.152;2023-06-01T08:42:28;11.90;;;4.10;;
41305;SDS011;27051;50.376;19.152;2023-06-01T08:47:24;8.90;;;4.00;;
41305;SDS011;27051;50.376;19.152;2023-06-01T08:49:51;9.50;;;3.50;;
41305;SDS011;27051;50.376;19.152;2023-06-01T08:52:20;13.30;;;3.80;;
41305;SDS011;27051;50.376;19.152;2023-06-01T08:54:48;11.30;;;3.90;;
41305;SDS011;27051;50.376;19.152;2023-06-01T08:57:16;9.00;;;3.30;;
41305;SDS011;27051;50.376;19.152;2023-06-01T08:59:43;6.70;;;3.20;;
41305;SDS011;27051;50.376;19.152;2023-06-01T09:02:12;9.50;;;3.60;;
41305;SDS011;27051;50.376;19.152;2023-06-01T09:04:40;8.80;;;3.20;;
41305;SDS011;27051;50.376;19.152;2023-06-01T09:07:07;9.70;;;4.60;;
41305;SDS011;27051;50.376;19.152;2023-06-01T09:09:34;7.70;;;3.30;;
41305;SDS011;27051;50.376;19.152;2023-06-01T09:12:20;8.90;;;4.00;;
41305;SDS011;27051;50.376;19.152;2023-06-01T09:15:04;7.00;;;3.40;;
41305;SDS011;27051;50.376;19.152;2023-06-01T09:17:34;9.20;;;3.60;;
41305;SDS011;27051;50.376;19.152;2023-06-01T09:20:01;6.10;;;3.20;;
41305;SDS011;27051;50.376;19.152;2023-06-01T09:22:38;7.40;;;2.80;;
41305;SDS011;27051;50.376;19.152;2023-06-01T09:25:09;6.10;;;3.70;;
41305;SDS011;27051;50.376;19.152;2023-06-01T09:27:49;8.80;;;3.20;;
41305;SDS011;27051;50.376;19.152;2023-06-01T09:30:17;10.40;;;3.60;;
41305;SDS011;27051;50.376;19.152;2023-06-01T09:32:45;10.30;;;3.60;;
41305;SDS011;27051;50.376;19.152;2023-06-01T09:35:12;11.30;;;3.60;;
41305;SDS011;27051;50.376;19.152;2023-06-01T09:37:41;7.20;;;3.30;;
41305;SDS011;27051;50.376;19.152;2023-06-01T09:40:20;7.90;;;3.40;;
41305;SDS011;27051;50.376;19.152;2023-06-01T09:42:47;4.40;;;2.90;;
41305;SDS011;27051;50.376;19.152;2023-06-01T09:45:18;10.70;;;3.70;;
41305;SDS011;27051;50.376;19.152;2023-06-01T09:47:48;9.10;;;3.20;;
41305;SDS011;27051;50.376;19.152;2023-06-01T09:50:35;7.60;;;3.30;;
41305;SDS011;27051;50.376;19.152;2023-06-01T09:53:04;5.00;;;3.10;;
41305;SDS011;27051;50.376;19.152;2023-06-01T09:55:31;4.20;;;3.00;;
41305;SDS011;27051;50.376;19.152;2023-06-01T09:58:17;9.60;;;3.70;;
41305;SDS011;27051;50.376;19.152;2023-06-01T10:00:48;5.90;;;3.10;;
41305;SDS011;27051;50.376;19.152;2023-06-01T10:03:17;6.10;;;3.00;;
41305;SDS011;27051;50.376;19.152;2023-06-01T10:05:45;15.30;;;3.30;;
41305;SDS011;27051;50.376;19.152;2023-06-01T10:08:15;6.00;;;2.70;;
41305;SDS011;27051;50.376;19.152;2023-06-01T10:10:44;7.00;;;3.20;;
41305;SDS011;27051;50.376;19.152;2023-06-01T10:13:12;5.80;;;3.40;;
41305;SDS011;27051;50.376;19.152;2023-06-01T10:15:40;7.80;;;3.20;;
41305;SDS011;27051;50.376;19.152;2023-06-01T10:18:07;14.00;;;3.60;;
41305;SDS011;27051;50.376;19.152;2023-06-01T10:20:34;6.60;;;3.20;;
41305;SDS011;27051;50.376;19.152;2023-06-01T10:23:02;11.60;;;3.80;;
41305;SDS011;27051;50.376;19.152;2023-06-01T10:25:30;6.20;;;3.00;;
41305;SDS011;27051;50.376;19.152;2023-06-01T10:28:01;4.80;;;3.30;;
41305;SDS011;27051;50.376;19.152;2023-06-01T10:30:30;5.70;;;3.40;;
41305;SDS011;27051;50.376;19.152;2023-06-01T10:32:57;7.00;;;3.10;;
41305;SDS011;27051;50.376;19.152;2023-06-01T10:40:33;11.90;;;3.00;;
41305;SDS011;27051;50.376;19.152;2023-06-01T10:43:00;7.80;;;2.90;;
41305;SDS011;27051;50.376;19.152;2023-06-01T10:48:01;5.00;;;3.10;;
41305;SDS011;27051;50.376;19.152;2023-06-01T10:50:29;4.50;;;3.10;;
41305;SDS011;27051;50.376;19.152;2023-06-01T10:52:56;7.50;;;2.70;;
41305;SDS011;27051;50.376;19.152;2023-06-01T10:55:43;6.50;;;3.10;;
41305;SDS011;27051;50.376;19.152;2023-06-01T10:58:19;8.80;;;3.50;;
41305;SDS011;27051;50.376;19.152;2023-06-01T11:00:46;7.30;;;3.20;;
41305;SDS011;27051;50.376;19.152;2023-06-01T11:03:14;4.50;;;3.20;;
41305;SDS011;27051;50.376;19.152;2023-06-01T11:13:17;4.70;;;3.10;;
41305;SDS011;27051;50.376;19.152;2023-06-01T11:16:28;5.80;;;2.80;;
41305;SDS011;27051;50.376;19.152;2023-06-01T11:21:09;5.80;;;2.60;;
41305;SDS011;27051;50.376;19.152;2023-06-01T11:23:46;6.00;;;2.70;;
41305;SDS011;27051;50.376;19.152;2023-06-01T11:26:14;4.20;;;3.00;;
41305;SDS011;27051;50.376;19.152;2023-06-01T11:28:43;32.40;;;4.30;;
41305;SDS011;27051;50.376;19.152;2023-06-01T11:31:12;8.90;;;3.30;;
41305;SDS011;27051;50.376;19.152;2023-06-01T11:33:40;6.20;;;3.00;;
41305;SDS011;27051;50.376;19.152;2023-06-01T11:36:07;4.70;;;2.80;;
41305;SDS011;27051;50.376;19.152;2023-06-01T11:38:35;7.90;;;3.10;;
41305;SDS011;27051;50.376;19.152;2023-06-01T11:41:04;7.20;;;3.20;;
41305;SDS011;27051;50.376;19.152;2023-06-01T11:43:32;7.60;;;3.20;;
41305;SDS011;27051;50.376;19.152;2023-06-01T11:46:04;7.70;;;3.20;;
41305;SDS011;27051;50.376;19.152;2023-06-01T11:48:33;4.20;;;3.10;;
41305;SDS011;27051;50.376;19.152;2023-06-01T11:51:01;33.90;;;4.20;;
41305;SDS011;27051;50.376;19.152;2023-06-01T11:53:29;7.70;;;3.10;;
41305;SDS011;27051;50.376;19.152;2023-06-01T11:55:57;7.60;;;2.80;;
41305;SDS011;27051;50.376;19.152;2023-06-01T11:58:25;5.60;;;3.50;;
41305;SDS011;27051;50.376;19.152;2023-06-01T12:00:53;3.20;;;2.90;;
41305;SDS011;27051;50.376;19.152;2023-06-01T12:03:21;4.50;;;3.60;;
41305;SDS011;27051;50.376;19.152;2023-06-01T12:05:48;11.30;;;3.40;;
41305;SDS011;27051;50.376;19.152;2023-06-01T12:08:16;5.70;;;3.70;;
41305;SDS011;27051;50.376;19.152;2023-06-01T12:10:45;3.90;;;3.60;;
41305;SDS011;27051;50.376;19.152;2023-06-01T12:13:12;5.60;;;3.40;;
41305;SDS011;27051;50.376;19.152;2023-06-01T12:15:50;5.80;;;3.60;;
41305;SDS011;27051;50.376;19.152;2023-06-01T12:18:28;5.00;;;3.50;;
41305;SDS011;27051;50.376;19.152;2023-06-01T12:20:55;7.90;;;4.20;;
41305;SDS011;27051;50.376;19.152;2023-06-01T12:23:22;5.50;;;3.50;;
41305;SDS011;27051;50.376;19.152;2023-06-01T12:28:19;5.70;;;4.00;;
41305;SDS011;27051;50.376;19.152;2023-06-01T12:30:47;10.30;;;5.40;;
41305;SDS011;27051;50.376;19.152;2023-06-01T12:33:31;8.40;;;3.60;;
41305;SDS011;27051;50.376;19.152;2023-06-01T12:36:02;6.20;;;3.90;;
41305;SDS011;27051;50.376;19.152;2023-06-01T12:38:36;5.30;;;3.80;;
41305;SDS011;27051;50.376;19.152;2023-06-01T12:43:34;7.10;;;3.70;;
41305;SDS011;27051;50.376;19.152;2023-06-01T12:46:02;4.90;;;3.80;;
41305;SDS011;27051;50.376;19.152;2023-06-01T12:48:30;5.60;;;3.80;;
41305;SDS011;27051;50.376;19.152;2023-06-01T12:51:07;6.80;;;3.50;;
41305;SDS011;27051;50.376;19.152;2023-06-01T12:53:34;7.70;;;3.90;;
41305;SDS011;27051;50.376;19.152;2023-06-01T12:56:01;7.50;;;3.50;;
41305;SDS011;27051;50.376;19.152;2023-06-01T12:58:27;5.90;;;3.10;;
41305;SDS011;27051;50.376;19.152;2023-06-01T13:00:54;5.90;;;3.80;;
41305;SDS011;27051;50.376;19.152;2023-06-01T13:03:21;12.80;;;3.90;;
41305;SDS011;27051;50.376;19.152;2023-06-01T13:05:48;4.60;;;3.20;;
41305;SDS011;27051;50.376;19.152;2023-06-01T13:08:15;8.90;;;4.00;;
41305;SDS011;27051;50.376;19.152;2023-06-01T13:10:42;6.90;;;3.50;;
41305;SDS011;27051;50.376;19.152;2023-06-01T13:13:09;4.80;;;3.20;;
41305;SDS011;27051;50.376;19.152;2023-06-01T13:15:39;8.70;;;3.30;;
41305;SDS011;27051;50.376;19.152;2023-06-01T13:18:06;12.90;;;4.20;;
41305;SDS011;27051;50.376;19.152;2023-06-01T13:20:33;10.80;;;3.80;;
41305;SDS011;27051;50.376;19.152;2023-06-01T13:23:01;5.90;;;3.30;;
41305;SDS011;27051;50.376;19.152;2023-06-01T13:25:28;15.80;;;3.70;;
41305;SDS011;27051;50.376;19.152;2023-06-01T13:27:55;5.30;;;3.50;;
41305;SDS011;27051;50.376;19.152;2023-06-01T13:30:22;4.60;;;3.30;;
41305;SDS011;27051;50.376;19.152;2023-06-01T13:32:49;7.20;;;3.80;;
41305;SDS011;27051;50.376;19.152;2023-06-01T13:35:16;6.20;;;3.20;;
41305;SDS011;27051;50.376;19.152;2023-06-01T13:37:42;4.10;;;3.50;;
41305;SDS011;27051;50.376;19.152;2023-06-01T13:40:09;11.90;;;3.90;;
41305;SDS011;27051;50.376;19.152;2023-06-01T13:42:37;5.70;;;3.30;;
41305;SDS011;27051;50.376;19.152;2023-06-01T13:45:04;6.90;;;3.50;;
41305;SDS011;27051;50.376;19.152;2023-06-01T13:47:31;10.10;;;4.00;;
41305;SDS011;27051;50.376;19.152;2023-06-01T13:49:58;6.10;;;3.10;;
41305;SDS011;27051;50.376;19.152;2023-06-01T13:52:25;6.20;;;3.10;;
41305;SDS011;27051;50.376;19.152;2023-06-01T13:54:52;7.90;;;3.40;;
41305;SDS011;27051;50.376;19.152;2023-06-01T13:57:18;8.60;;;3.30;;
41305;SDS011;27051;50.376;19.152;2023-06-01T13:59:45;5.60;;;3.10;;
41305;SDS011;27051;50.376;19.152;2023-06-01T14:02:12;7.50;;;3.10;;
41305;SDS011;27051;50.376;19.152;2023-06-01T14:04:38;6.60;;;3.20;;
41305;SDS011;27051;50.376;19.152;2023-06-01T14:07:05;9.30;;;3.20;;
41305;SDS011;27051;50.376;19.152;2023-06-01T14:09:32;4.50;;;3.00;;
41305;SDS011;27051;50.376;19.152;2023-06-01T14:11:59;6.10;;;2.80;;
41305;SDS011;27051;50.376;19.152;2023-06-01T14:14:25;5.10;;;2.80;;
41305;SDS011;27051;50.376;19.152;2023-06-01T14:16:52;9.00;;;3.20;;
41305;SDS011;27051;50.376;19.152;2023-06-01T14:19:18;5.50;;;3.20;;
41305;SDS011;27051;50.376;19.152;2023-06-01T14:21:45;14.40;;;3.40;;
41305;SDS011;27051;50.376;19.152;2023-06-01T14:24:12;10.10;;;2.80;;
41305;SDS011;27051;50.376;19.152;2023-06-01T14:26:39;4.90;;;2.60;;
41305;SDS011;27051;50.376;19.152;2023-06-01T14:29:05;4.90;;;2.80;;
41305;SDS011;27051;50.376;19.152;2023-06-01T14:31:32;6.20;;;2.40;;
41305;SDS011;27051;50.376;19.152;2023-06-01T14:34:02;8.50;;;2.90;;
41305;SDS011;27051;50.376;19.152;2023-06-01T14:36:29;2.80;;;2.50;;
41305;SDS011;27051;50.376;19.152;2023-06-01T14:38:56;5.00;;;2.60;;
41305;SDS011;27051;50.376;19.152;2023-06-01T14:41:22;5.60;;;3.00;;
41305;SDS011;27051;50.376;19.152;2023-06-01T14:43:49;5.40;;;2.70;;
41305;SDS011;27051;50.376;19.152;2023-06-01T14:46:16;7.60;;;2.60;;
41305;SDS011;27051;50.376;19.152;2023-06-01T14:48:43;5.00;;;2.80;;
41305;SDS011;27051;50.376;19.152;2023-06-01T14:51:10;3.10;;;2.30;;
41305;SDS011;27051;50.376;19.152;2023-06-01T14:53:37;5.10;;;2.40;;
41305;SDS011;27051;50.376;19.152;2023-06-01T14:56:04;10.80;;;3.30;;
41305;SDS011;27051;50.376;19.152;2023-06-01T14:58:31;11.30;;;2.90;;
41305;SDS011;27051;50.376;19.152;2023-06-01T15:00:58;6.10;;;2.60;;
41305;SDS011;27051;50.376;19.152;2023-06-01T15:03:25;3.30;;;2.10;;
41305;SDS011;27051;50.376;19.152;2023-06-01T15:05:52;6.00;;;2.80;;
41305;SDS011;27051;50.376;19.152;2023-06-01T15:08:18;6.80;;;2.60;;
41305;SDS011;27051;50.376;19.152;2023-06-01T15:10:45;7.40;;;3.10;;